createdAt,value
2023-04-01T00:00:02.812Z,96640.66
2023-04-01T00:02:32.317Z,96641.47
2023-04-01T00:05:00.261Z,96640.41
2023-04-01T00:07:30.615Z,96643.91
2023-04-01T00:09:58.955Z,96633.19
2023-04-01T00:12:27.011Z,96639.63
2023-04-01T00:14:54.936Z,96630.75
2023-04-01T00:17:22.865Z,96639.06
2023-04-01T00:19:52.368Z,96636.91
2023-04-01T00:22:20.266Z,96635.88
2023-04-01T00:24:48.432Z,96636.38
2023-04-01T00:27:16.994Z,96645.00
2023-04-01T00:29:45.532Z,96633.47
2023-04-01T00:32:13.723Z,96640.72
2023-04-01T00:34:42.198Z,96646.38
2023-04-01T00:37:12.486Z,96645.56
2023-04-01T00:39:40.518Z,96639.69
2023-04-01T00:42:08.765Z,96643.16
2023-04-01T00:44:37.501Z,96646.13
2023-04-01T00:47:05.821Z,96636.97
2023-04-01T00:49:37.014Z,96636.72
2023-04-01T00:52:07.695Z,96644.50
2023-04-01T00:54:38.309Z,96648.25
2023-04-01T00:57:11.199Z,96641.28
2023-04-01T00:59:44.721Z,96646.13
2023-04-01T01:02:14.962Z,96643.94
2023-04-01T01:04:43.269Z,96643.94
2023-04-01T01:07:22.453Z,96652.56
2023-04-01T01:10:03.879Z,96638.34
2023-04-01T01:12:37.591Z,96646.69
2023-04-01T01:15:14.145Z,96645.31
2023-04-01T01:17:50.506Z,96645.56
2023-04-01T01:20:55.432Z,96646.66
2023-04-01T01:23:48.813Z,96637.25
2023-04-01T01:26:48.879Z,96642.63
2023-04-01T01:29:45.785Z,96643.94
2023-04-01T01:32:22.442Z,96645.56
2023-04-01T01:34:57.563Z,96641.84
2023-04-01T01:37:29.472Z,96646.16
2023-04-01T01:40:03.982Z,96648.31
2023-04-01T01:42:35.915Z,96642.13
2023-04-01T01:45:06.154Z,96648.28
2023-04-01T01:47:36.097Z,96644.28
2023-04-01T01:50:06.024Z,96637.53
2023-04-01T01:52:35.397Z,96644.00
2023-04-01T01:55:03.456Z,96637.03
2023-04-01T01:57:36.631Z,96644.53
2023-04-01T02:00:14.753Z,96639.19
2023-04-01T02:02:43.564Z,96647.22
2023-04-01T02:05:14.177Z,96644.53
2023-04-01T02:07:49.165Z,96637.03
2023-04-01T02:10:17.645Z,96640.50
2023-04-01T02:12:48.621Z,96641.84
2023-04-01T02:15:18.955Z,96638.09
2023-04-01T02:17:49.961Z,96642.97
2023-04-01T02:20:20.144Z,96645.13
2023-04-01T02:22:53.004Z,96648.34
2023-04-01T02:25:24.652Z,96654.22
2023-04-01T02:27:52.938Z,96650.50
2023-04-01T02:30:22.297Z,96646.75
2023-04-01T02:32:51.037Z,96652.41
2023-04-01T02:35:20.495Z,96660.41
2023-04-01T02:37:52.433Z,96651.06
2023-04-01T02:40:20.432Z,96646.19
2023-04-01T02:42:48.520Z,96641.66
2023-04-01T02:45:17.326Z,96634.41
2023-04-01T02:47:45.365Z,96629.03
2023-04-01T02:50:13.848Z,96632.00
2023-04-01T02:52:41.750Z,96647.84
2023-04-01T02:55:12.002Z,96630.41
2023-04-01T02:57:40.345Z,96635.00
2023-04-01T03:00:12.297Z,96643.03
2023-04-01T03:02:40.971Z,96641.69
2023-04-01T03:05:10.030Z,96644.09
2023-04-01T03:07:37.933Z,96645.19
2023-04-01T03:10:07.010Z,96650.81
2023-04-01T03:12:36.375Z,96652.16
2023-04-01T03:15:11.307Z,96649.75
2023-04-01T03:17:39.864Z,96655.91
2023-04-01T03:20:09.555Z,96647.88
2023-04-01T03:22:37.804Z,96660.81
2023-04-01T03:25:07.095Z,96647.63
2023-04-01T03:27:36.957Z,96654.63
2023-04-01T03:30:06.007Z,96659.72
2023-04-01T03:32:34.124Z,96661.56
2023-04-01T03:35:02.218Z,96659.19
2023-04-01T03:37:30.100Z,96661.84
2023-04-01T03:39:58.318Z,96667.78
2023-04-01T03:42:26.931Z,96660.22
2023-04-01T03:44:56.206Z,96657.06
2023-04-01T03:47:24.428Z,96662.44
2023-04-01T03:49:52.709Z,96669.41
2023-04-01T03:52:21.277Z,96661.09
2023-04-01T03:54:51.403Z,96659.22
2023-04-01T03:57:19.633Z,96654.38
2023-04-01T03:59:47.623Z,96660.56
2023-04-01T04:02:16.972Z,96656.28
2023-04-01T04:04:45.110Z,96647.16
2023-04-01T04:07:13.129Z,96645.81
2023-04-01T04:09:41.268Z,96645.03
2023-04-01T04:12:09.444Z,96642.59
2023-04-01T04:14:37.535Z,96635.38
2023-04-01T04:17:06.565Z,96639.41
2023-04-01T04:19:36.099Z,96641.56
2023-04-01T04:22:04.266Z,96638.59
2023-04-01T04:24:32.413Z,96642.09
2023-04-01T04:27:00.298Z,96632.16
2023-04-01T04:29:28.517Z,96632.97
2023-04-01T04:31:56.772Z,96637.00
2023-04-01T04:34:24.870Z,96627.88
2023-04-01T04:36:54.530Z,96629.47
2023-04-01T04:39:22.651Z,96644.50
2023-04-01T04:41:50.698Z,96646.38
2023-04-01T04:44:18.939Z,96648.25
2023-04-01T04:46:46.961Z,96648.53
2023-04-01T04:49:15.513Z,96646.63
2023-04-01T04:51:43.540Z,96648.81
2023-04-01T04:54:13.046Z,96640.75
2023-04-01T04:56:41.185Z,96630.81
2023-04-01T04:59:09.219Z,96645.03
2023-04-01T05:01:37.669Z,96620.66
2023-04-01T05:04:06.321Z,96634.03
2023-04-01T05:06:34.491Z,96632.47
2023-04-01T05:09:02.736Z,96644.53
2023-04-01T05:11:32.317Z,96646.66
2023-04-01T05:14:00.261Z,96638.09
2023-04-01T05:16:28.391Z,96636.75
2023-04-01T05:18:56.590Z,96649.34
2023-04-01T05:21:24.567Z,96637.56
2023-04-01T05:23:52.840Z,96648.00
2023-04-01T05:26:20.795Z,96636.75
2023-04-01T05:28:50.211Z,96641.03
2023-04-01T05:31:18.575Z,96628.97
2023-04-01T05:33:46.507Z,96637.53
2023-04-01T05:36:16.497Z,96633.50
2023-04-01T05:38:46.986Z,96624.63
2023-04-01T05:41:15.128Z,96639.69
2023-04-01T05:43:44.572Z,96633.75
2023-04-01T05:46:14.100Z,96636.97
2023-04-01T05:48:42.137Z,96634.00
2023-04-01T05:51:15.545Z,96635.63
2023-04-01T05:53:43.784Z,96639.66
2023-04-01T05:56:11.906Z,96623.53
2023-04-01T05:58:41.020Z,96619.22
2023-04-01T06:01:15.577Z,96618.38
2023-04-01T06:03:46.142Z,96624.81
2023-04-01T06:06:17.244Z,96616.75
2023-04-01T06:08:45.472Z,96632.03
2023-04-01T06:11:27.311Z,96619.97
2023-04-01T06:14:19.518Z,96628.25
2023-04-01T06:17:04.340Z,96618.88
2023-04-01T06:19:42.921Z,96623.66
2023-04-01T06:22:46.428Z,96623.09
2023-04-01T06:25:59.403Z,96618.53
2023-04-01T06:29:02.998Z,96620.66
2023-04-01T06:31:55.528Z,96608.81
2023-04-01T06:34:42.096Z,96615.50
2023-04-01T06:37:25.440Z,96612.50
2023-04-01T06:40:20.685Z,96621.59
2023-04-01T06:43:03.477Z,96605.16
2023-04-01T06:45:40.865Z,96614.00
2023-04-01T06:48:32.524Z,96609.19
2023-04-01T06:51:30.509Z,96617.81
2023-04-01T06:54:16.409Z,96615.34
2023-04-01T06:57:00.353Z,96612.72
2023-04-01T06:59:43.148Z,96611.31
2023-04-01T07:02:38.609Z,96617.78
2023-04-01T07:05:18.207Z,96616.44
2023-04-01T07:08:08.838Z,96612.13
2023-04-01T07:10:45.239Z,96618.31
2023-04-01T07:13:20.323Z,96608.09
2023-04-01T07:15:57.911Z,96608.81
2023-04-01T07:18:38.063Z,96614.69
2023-04-01T07:21:12.368Z,96615.53
2023-04-01T07:23:48.258Z,96616.03
2023-04-01T07:26:21.817Z,96625.72
2023-04-01T07:28:50.795Z,96618.44
2023-04-01T07:31:29.088Z,96632.38
2023-04-01T07:34:06.861Z,96622.69
2023-04-01T07:36:40.666Z,96632.63
2023-04-01T07:39:20.706Z,96635.56
2023-04-01T07:41:59.086Z,96637.69
2023-04-01T07:44:35.471Z,96634.19
2023-04-01T07:47:17.803Z,96638.81
2023-04-01T07:49:59.910Z,96638.25
2023-04-01T07:52:35.759Z,96636.94
2023-04-01T07:55:11.327Z,96636.66
2023-04-01T07:57:51.124Z,96630.22
2023-04-01T08:00:22.840Z,96630.69
2023-04-01T08:03:15.960Z,96631.78
2023-04-01T08:05:55.936Z,96640.91
2023-04-01T08:08:35.470Z,96641.47
2023-04-01T08:11:15.571Z,96646.53
2023-04-01T08:13:50.715Z,96628.81
2023-04-01T08:16:25.545Z,96629.53
2023-04-01T08:19:05.909Z,96641.66
2023-04-01T08:21:37.735Z,96632.75
2023-04-01T08:24:29.741Z,96643.53
2023-04-01T08:27:16.445Z,96651.00
2023-04-01T08:29:58.814Z,96637.03
2023-04-01T08:32:42.641Z,96649.94
2023-04-01T08:35:17.952Z,96640.22
2023-04-01T08:37:47.587Z,96643.75
2023-04-01T08:40:38.666Z,96638.59
2023-04-01T08:43:18.355Z,96643.19
2023-04-01T08:46:15.790Z,96653.97
2023-04-01T08:49:07.060Z,96649.88
2023-04-01T08:51:57.367Z,96659.03
2023-04-01T08:54:42.893Z,96667.91
2023-04-01T08:57:15.279Z,96659.31
2023-04-01T09:00:01.108Z,96659.06
2023-04-01T09:03:11.867Z,96656.47
2023-04-01T09:06:05.647Z,96657.84
2023-04-01T09:08:44.790Z,96657.66
2023-04-01T09:11:26.310Z,96660.09
2023-04-01T09:14:11.956Z,96654.19
2023-04-01T09:17:14.259Z,96660.91
2023-04-01T09:20:01.087Z,96652.06
2023-04-01T09:22:43.276Z,96660.63
2023-04-01T09:25:36.704Z,96653.69
2023-04-01T09:28:12.608Z,96653.69
2023-04-01T09:31:08.524Z,96647.50
2023-04-01T09:34:22.768Z,96657.94
2023-04-01T09:37:05.069Z,96657.94
2023-04-01T09:39:45.586Z,96653.34
2023-04-01T09:42:34.019Z,96660.56
2023-04-01T09:45:07.007Z,96658.94
2023-04-01T09:47:53.544Z,96666.44
2023-04-01T09:50:38.904Z,96664.56
2023-04-01T09:53:19.977Z,96659.16
2023-04-01T09:56:26.587Z,96667.22
2023-04-01T09:59:17.743Z,96664.25
2023-04-01T10:02:06.346Z,96660.47
2023-04-01T10:05:06.727Z,96675.28
2023-04-01T10:08:20.666Z,96679.28
2023-04-01T10:11:12.972Z,96677.38
2023-04-01T10:14:25.604Z,96677.94
2023-04-01T10:17:29.301Z,96676.00
2023-04-01T10:20:34.044Z,96667.91
2023-04-01T10:23:23.506Z,96675.72
2023-04-01T10:26:07.418Z,96671.72
2023-04-01T10:29:08.735Z,96677.84
2023-04-01T10:31:52.807Z,96675.81
2023-04-01T10:34:49.388Z,96687.28
2023-04-01T10:37:33.808Z,96681.63
2023-04-01T10:40:33.661Z,96680.88
2023-04-01T10:43:37.517Z,96677.13
2023-04-01T10:46:51.910Z,96685.22
2023-04-01T10:49:45.945Z,96690.31
2023-04-01T10:52:50.969Z,96683.03
2023-04-01T10:56:07.265Z,96680.63
2023-04-01T10:59:04.834Z,96680.63
2023-04-01T11:02:11.383Z,96683.84
2023-04-01T11:05:08.985Z,96683.91
2023-04-01T11:08:10.928Z,96680.16
2023-04-01T11:11:26.804Z,96678.00
2023-04-01T11:14:19.986Z,96676.59
2023-04-01T11:17:20.307Z,96682.25
2023-04-01T11:20:35.917Z,96685.19
2023-04-01T11:23:30.531Z,96684.19
2023-04-01T11:26:11.825Z,96692.75
2023-04-01T11:29:12.847Z,96679.84
2023-04-01T11:32:01.323Z,96690.31
2023-04-01T11:34:50.959Z,96683.78
2023-04-01T11:37:32.168Z,96687.81
2023-04-01T11:40:13.051Z,96693.72
2023-04-01T11:42:48.633Z,96702.28
2023-04-01T11:45:29.709Z,96690.97
2023-04-01T11:48:13.696Z,96696.63
2023-04-01T11:50:53.925Z,96682.34
2023-04-01T11:53:30.067Z,96695.84
2023-04-01T11:56:13.579Z,96691.19
2023-04-01T11:59:05.236Z,96697.38
2023-04-01T12:01:46.907Z,96698.69
2023-04-01T12:04:46.017Z,96701.31
2023-04-01T12:07:24.056Z,96707.28
2023-04-01T12:10:01.446Z,96713.75
2023-04-01T12:12:47.781Z,96715.56
2023-04-01T12:15:28.854Z,96722.78
2023-04-01T12:18:05.639Z,96718.69
2023-04-01T12:20:47.754Z,96717.38
2023-04-01T12:23:31.525Z,96723.56
2023-04-01T12:26:22.275Z,96716.81
2023-04-01T12:29:06.949Z,96724.41
2023-04-01T12:31:45.199Z,96717.22
2023-04-01T12:34:36.068Z,96724.94
2023-04-01T12:37:14.365Z,96717.16
2023-04-01T12:40:01.366Z,96722.25
2023-04-01T12:42:54.152Z,96728.44
2023-04-01T12:45:31.523Z,96720.91
2023-04-01T12:48:25.555Z,96725.19
2023-04-01T12:51:22.167Z,96730.81
2023-04-01T12:54:23.569Z,96717.94
2023-04-01T12:56:59.571Z,96723.31
2023-04-01T12:59:45.986Z,96721.97
2023-04-01T13:02:23.647Z,96724.94
2023-04-01T13:05:06.543Z,96730.06
2023-04-01T13:07:58.316Z,96730.09
2023-04-01T13:10:49.684Z,96730.09
2023-04-01T13:13:44.322Z,96733.03
2023-04-01T13:16:20.770Z,96737.06
2023-04-01T13:19:04.823Z,96730.97
2023-04-01T13:21:54.858Z,96730.91
2023-04-01T13:24:54.899Z,96738.97
2023-04-01T13:27:33.078Z,96742.69
2023-04-01T13:30:26.933Z,96751.06
2023-04-01T13:33:10.343Z,96755.84
2023-04-01T13:35:55.431Z,96757.50
2023-04-01T13:38:52.917Z,96760.22
2023-04-01T13:41:40.751Z,96757.78
2023-04-01T13:44:26.736Z,96772.63
2023-04-01T13:47:41.303Z,96762.47
2023-04-01T13:50:33.658Z,96760.09
2023-04-01T13:54:52.427Z,96780.00
2023-04-01T13:58:45.278Z,96768.19
2023-04-01T14:01:18.336Z,96778.41
2023-04-01T14:07:55.659Z,96775.19
2023-04-01T14:10:35.306Z,96767.88
2023-04-01T14:13:17.239Z,96779.47
2023-04-01T14:16:06.016Z,96773.53
2023-04-01T14:18:55.482Z,96783.25
2023-04-01T14:21:37.199Z,96782.16
2023-04-01T14:24:44.534Z,96780.84
2023-04-01T14:27:49.321Z,96788.66
2023-04-01T14:30:43.635Z,96786.53
2023-04-01T14:33:26.467Z,96790.31
2023-04-01T14:36:10.110Z,96786.59
2023-04-01T14:38:52.374Z,96788.16
2023-04-01T14:41:43.888Z,96794.63
2023-04-01T14:44:21.453Z,96814.22
2023-04-01T14:47:21.538Z,96807.00
2023-04-01T14:49:53.440Z,96801.09
2023-04-01T14:52:31.272Z,96797.63
2023-04-01T14:55:00.945Z,96797.09
2023-04-01T14:57:31.542Z,96804.91
2023-04-01T15:00:05.369Z,96798.44
2023-04-01T15:02:50.067Z,96804.59
2023-04-01T15:05:44.694Z,96805.44
2023-04-01T15:08:23.829Z,96802.50
2023-04-01T15:11:29.797Z,96808.16
2023-04-01T15:14:28.081Z,96812.19
2023-04-01T15:17:24.070Z,96806.28
2023-04-01T15:20:15.900Z,96802.25
2023-04-01T15:23:00.292Z,96805.47
2023-04-01T15:25:41.346Z,96812.75
2023-04-01T15:28:17.833Z,96803.84
2023-04-01T15:30:56.769Z,96812.72
2023-04-01T15:33:42.666Z,96814.59
2023-04-01T15:36:21.789Z,96819.44
2023-04-01T15:38:55.108Z,96814.03
2023-04-01T15:41:30.076Z,96808.13
2023-04-01T15:43:58.166Z,96813.50
2023-04-01T15:46:44.425Z,96815.34
2023-04-01T15:49:39.679Z,96823.69
2023-04-01T15:52:21.926Z,96818.59
2023-04-01T15:55:16.401Z,96829.34
2023-04-01T15:57:58.928Z,96828.47
2023-04-01T16:00:31.404Z,96827.91
2023-04-01T16:03:20.214Z,96843.78
2023-04-01T16:06:04.006Z,96831.66
2023-04-01T16:08:58.592Z,96838.94
2023-04-01T16:11:41.888Z,96838.69
2023-04-01T16:14:20.831Z,96839.78
2023-04-01T16:17:00.922Z,96842.75
2023-04-01T16:19:39.886Z,96838.97
2023-04-01T16:22:12.227Z,96840.31
2023-04-01T16:24:45.562Z,96846.47
2023-04-01T16:27:21.903Z,96848.88
2023-04-01T16:29:58.199Z,96853.72
2023-04-01T16:32:39.989Z,96850.75
2023-04-01T16:35:25.558Z,96854.81
2023-04-01T16:37:58.257Z,96856.44
2023-04-01T16:40:39.014Z,96864.22
2023-04-01T16:43:18.330Z,96865.56
2023-04-01T16:45:56.685Z,96855.88
2023-04-01T16:48:31.608Z,96862.31
2023-04-01T16:51:02.641Z,96874.44
2023-04-01T16:53:44.075Z,96885.44
2023-04-01T16:56:16.388Z,96885.19
2023-04-01T16:58:56.678Z,96886.25
2023-04-01T17:01:31.375Z,96883.31
2023-04-01T17:04:06.729Z,96875.81
2023-04-01T17:06:41.835Z,96878.53
2023-04-01T17:09:27.672Z,96875.84
2023-04-01T17:12:02.782Z,96885.25
2023-04-01T17:14:39.147Z,96881.50
2023-04-01T17:17:45.524Z,96879.63
2023-04-01T17:20:28.876Z,96881.78
2023-04-01T17:23:03.344Z,96878.34
2023-04-01T17:25:40.910Z,96883.47
2023-04-01T17:28:22.768Z,96887.75
2023-04-01T17:31:04.509Z,96888.03
2023-04-01T17:34:11.396Z,96889.38
2023-04-01T17:36:53.762Z,96887.50
2023-04-01T17:39:43.873Z,96888.56
2023-04-01T17:42:17.670Z,96890.72
2023-04-01T17:45:04.225Z,96902.00
2023-04-01T17:47:44.065Z,96900.94
2023-04-01T17:50:32.093Z,96904.16
2023-04-01T17:53:21.712Z,96906.84
2023-04-01T17:56:01.426Z,96917.31
2023-04-01T17:58:33.672Z,96920.28
2023-04-01T18:01:43.204Z,96918.13
2023-04-01T18:04:39.770Z,96924.28
2023-04-01T18:07:29.314Z,96927.22
2023-04-01T18:10:19.734Z,96936.66
2023-04-01T18:13:11.631Z,96941.19
2023-04-01T18:15:46.611Z,96945.19
2023-04-01T18:18:42.637Z,96942.50
2023-04-01T18:21:26.866Z,96949.22
2023-04-01T18:24:13.524Z,96954.06
2023-04-01T18:26:59.483Z,96959.16
2023-04-01T18:29:43.825Z,96951.38
2023-04-01T18:32:24.536Z,96952.78
2023-04-01T18:35:02.839Z,96957.88
2023-04-01T18:37:35.360Z,96963.25
2023-04-01T18:40:17.861Z,96974.00
2023-04-01T18:43:02.233Z,96968.09
2023-04-01T18:45:34.815Z,96972.91
2023-04-01T18:48:17.135Z,96983.94
2023-04-01T18:50:53.322Z,96982.59
2023-04-01T18:53:31.087Z,96986.88
2023-04-01T18:56:01.871Z,96991.72
2023-04-01T18:58:35.998Z,96987.69
2023-04-01T19:01:22.986Z,96987.41
2023-04-01T19:04:02.659Z,96991.72
2023-04-01T19:06:34.393Z,96994.94
2023-04-01T19:09:19.443Z,97006.22
2023-04-01T19:11:57.717Z,97008.63
2023-04-01T19:14:44.682Z,97005.94
2023-04-01T19:17:25.232Z,97004.88
2023-04-01T19:19:58.385Z,97004.06
2023-04-01T19:22:42.659Z,97010.50
2023-04-01T19:25:26.248Z,97007.00
2023-04-01T19:28:03.678Z,97002.97
2023-04-01T19:30:50.444Z,97006.72
2023-04-01T19:33:32.082Z,97007.78
2023-04-01T19:36:11.315Z,97012.63
2023-04-01T19:38:40.605Z,97013.94
2023-04-01T19:41:25.756Z,97015.81
2023-04-01T19:44:02.300Z,97018.22
2023-04-01T19:46:38.727Z,97020.38
2023-04-01T19:49:23.807Z,97019.00
2023-04-01T19:51:59.342Z,97019.56
2023-04-01T19:54:36.725Z,97011.53
2023-04-01T19:57:17.685Z,97025.72
2023-04-01T19:59:53.196Z,97027.06
2023-04-01T20:02:52.476Z,97035.13
2023-04-01T20:05:46.981Z,97034.81
2023-04-01T20:08:23.889Z,97038.59
2023-04-01T20:11:02.981Z,97045.03
2023-04-01T20:13:41.919Z,97039.66
2023-04-01T20:16:11.809Z,97052.81
2023-04-01T20:18:48.197Z,97054.69
2023-04-01T20:21:39.774Z,97049.56
2023-04-01T20:24:25.197Z,97058.44
2023-04-01T20:27:05.219Z,97045.03
2023-04-01T20:29:44.401Z,97056.28
2023-04-01T20:32:30.960Z,97053.31
2023-04-01T20:35:16.832Z,97056.00
2023-04-01T20:37:55.258Z,97063.28
2023-04-01T20:40:42.484Z,97063.28
2023-04-01T20:43:49.516Z,97068.13
2023-04-01T20:46:22.814Z,97063.31
2023-04-01T20:49:17.598Z,97065.19
2023-04-01T20:51:54.179Z,97075.94
2023-04-01T20:54:39.284Z,97070.56
2023-04-01T20:57:11.749Z,97081.56
2023-04-01T20:59:52.122Z,97075.94
2023-04-01T21:02:34.948Z,97085.59
2023-04-01T21:05:33.635Z,97080.22
2023-04-01T21:08:11.331Z,97083.97
2023-04-01T21:10:46.252Z,97083.97
2023-04-01T21:13:33.711Z,97090.41
2023-04-01T21:16:13.404Z,97088.81
2023-04-01T21:18:56.396Z,97092.81
2023-04-01T21:21:41.973Z,97092.81
2023-04-01T21:24:54.944Z,97093.91
2023-04-01T21:27:45.177Z,97094.97
2023-04-01T21:30:34.498Z,97097.66
2023-04-01T21:33:17.907Z,97105.19
2023-04-01T21:35:58.610Z,97098.72
2023-04-01T21:38:41.158Z,97103.28
2023-04-01T21:41:32.666Z,97105.19
2023-04-01T21:44:38.018Z,97109.75
2023-04-01T21:47:38.209Z,97103.56
2023-04-01T21:50:26.845Z,97113.22
2023-04-01T21:53:38.862Z,97118.59
2023-04-01T21:56:52.662Z,97116.97
2023-04-01T21:59:48.475Z,97121.00
2023-04-01T22:02:40.922Z,97116.97
2023-04-01T22:05:13.657Z,97118.88
2023-04-01T22:07:49.943Z,97122.06
2023-04-01T22:10:28.385Z,97127.16
2023-04-01T22:13:06.444Z,97126.38
2023-04-01T22:15:56.611Z,97130.94
2023-04-01T22:18:34.683Z,97130.13
2023-04-01T22:21:09.232Z,97138.72
2023-04-01T22:23:46.030Z,97142.19
2023-04-01T22:26:24.820Z,97137.38
2023-04-01T22:29:01.860Z,97139.00
2023-04-01T22:31:40.789Z,97136.88
2023-04-01T22:34:16.148Z,97145.19
2023-04-01T22:36:55.010Z,97146.53
2023-04-01T22:39:34.107Z,97145.72
2023-04-01T22:42:14.570Z,97146.25
2023-04-01T22:44:54.168Z,97148.44
2023-04-01T22:47:32.629Z,97146.78
2023-04-01T22:50:07.970Z,97152.44
2023-04-01T22:52:42.920Z,97156.75
2023-04-01T22:55:19.251Z,97158.59
2023-04-01T22:57:53.145Z,97156.16
2023-04-01T23:00:28.207Z,97150.25
2023-04-01T23:03:12.824Z,97162.06
2023-04-01T23:05:59.514Z,97162.06
2023-04-01T23:08:57.396Z,97162.59
2023-04-01T23:11:29.108Z,97164.22
2023-04-01T23:14:08.965Z,97162.34
2023-04-01T23:16:43.230Z,97171.47
2023-04-01T23:19:20.674Z,97171.97
2023-04-01T23:21:54.064Z,97179.50
2023-04-01T23:24:30.690Z,97179.50
2023-04-01T23:27:04.494Z,97181.66
2023-04-01T23:29:37.215Z,97184.34
2023-04-01T23:32:06.421Z,97176.53
2023-04-01T23:34:37.316Z,97187.81
2023-04-01T23:37:07.631Z,97184.84
2023-04-01T23:39:38.912Z,97193.16
2023-04-01T23:42:14.868Z,97196.66
2023-04-01T23:44:44.382Z,97195.28
2023-04-01T23:47:18.698Z,97201.72
2023-04-01T23:49:50.678Z,97201.47
2023-04-01T23:52:24.290Z,97204.66
2023-04-01T23:54:56.305Z,97207.09
2023-04-01T23:57:29.717Z,97209.78
